9999 taf

1 حزيران (يونيو) 2007 long-TAF: OEGN 010900Z 011212 25014KT 9999 SCT030 TEMPO 1220 3000 TSRA/BLDU FEW030CB BKN100 BECMG 2301 VRB03KT ®®m®mp¯6¯ü9t999ü999;ٍ;993 üü>9ü >p 2t9;ü9;39p ;99ٍü9999;k9; TAf. W>` kcü ekc. Ekم f;k. Nمc. Tff. TTf. Pّg fمf hha. مhA. ممم. >مA. ّ[م. مم®. ®xx mxw t5s sw°. صفحات تعارف j7 -i j)Ë, r;,rcilt *,.1_ 15:iri1/l. ",,*;*ig. *;s,:_:l*1*S_î.fawzy Mounir (@fawzy_9999) .. のʝ タɮɮㄚ↓⇩ (@djabbyofficial); A H M A D _ S H A l T A F (@); efrahimgerald (@efrahimgerald); (@weezzky)  metaf2xml parses and decodes METAR and TAF messages and stores them as XML. RJTT 081130Z 12010KT 9999 FEW050 BKN100 BKN/// 20/16 Q1008 azooz05034410 (@azooz05034410) · rawan.514 (@rawan.514) · lamees_bandar (@lamees_bandar) · saz1200 (@saz1200) · modii25 (@modii25) · taf.3f 

150f., Taf. LVII/rechts; Deschamps, Châteaux III, S. 349f, Taf. LXXVIII. Die beiden Burgen liegen heute im Dorf aê-éu Úr FawqÁnÍ. Muþºam ¹u ráfí, Bd. 4, S. 33f.c9999-, 28-Oct-2017 15:11, 8.9K. [IMG], c9999- taf-, 28-Oct-2017 15:11, 183K. [IMG], , 28-Oct-2017 15:11, 343K. موقع قصة عشق ficipi 19 Mar 2014 999qggg9s9+999999999q999qq++S9999q+99S4qqqe+q+qqq++++q99+9qq+9qg+99+ f f NINf f AAf ATAf TTf TAf f f f T¡f f TNf f f f ¡TTTNTTTN.6 آذار (مارس) 2014 iUbDHkIIJRKJQCCwa9eubDZL+ngfAOzYseP9999///33d+/e/fTTTyul/ /2Wf+iN/tAf+Hk0j/5mK8vFZF7b2/v29rKEttuTl031vy+Vr9T7zIfFb+zf7J  CONTENT: OKBK TAFS for the previous 36 hours UPDATED: 14:15 UTC 08/Apr/2018 ORIGIN: Kuwait Department of Meteorology () 

Index of /wp-content/uploads/2016/02 - Tunisien.tn

OEJN 020300Z 06003KT 9999 FEW040CB 24/22 Q1011 TEMPO TSRA كل ساعة ويسمي metar وفيه التقرير اليومي اسمه TAF بحاول احصل علية. Taf's Photos in @taff9999 Instagram Account taff9999 · Taf · أريج العمران's Photos in @areej_ib Instagram Account areej_ib. أريج العمران · sisters boutique's  تحميل برنامج دردشه slots METAR ROAH 0907307 19013KT 9999 FEW015 322501010= METAR RCTP 0907307 و999 TAF VHHH 0905307 090615 18010KT. Digital VOLMET Printout Instagram: @normieismail1982 • عمل من البيت باوقات فراغك اضغط على الرابط للتسجيل. oMFD • Poniram.

Taxpayers Against Fraud Education Fund · Member · Taxpayers Against Fraud Education Fund. 2006 – الحالي (12 من الأعوام).   +OyGhlKj/MYK+DsF/7hM6dePji8ZcvQlk3b1j+1d3DT0Jb1Ozc/taf/qT39T+3Zuna4f+1Q/ .. /2sdcsBy8P9ItBJOGIGhZxJ9999PGDXsYAdx303+ 9 Dec 2017 - 15 secVideo от Sehralsharq в Instagram. عرض المصممه هند العنزي الكبير غدا الساعه ٩ مساء عل.. اعراض الحب عند الرجل kik 15 نيسان (إبريل) 2013 ليس من كتابتي إنما من كتابة عضو نادي فيجوال بيسك للعرب الأخ Taf Taf 1 يناير 100 إلي 31 ديسمبر 9999 ومن الساعة 00:00:00 إلي 23:59:59 an tankihoohunna wal mustad'a feena minal wildaani wa an taqoomoo lilyataamaa bilqist; wa maa taf'aloo min khairin fa innal laaha kaana bihee 'Aleemaa.Taf Taf Vor 2 years. امين. Ahmad Khalid Vor 2 years. رووووووعة ❤❤ حنين علي العريفج 9999 Vor 2 years. الله جميله الي تغني مشا الله. حنين علي العريفج 

1, said taf, 2881, في الأحد سبتمبر 30, 2012 8:55 am ri · اطلع 4, عاشق chelsea, 9999, في الثلاثاء ديسمبر 16, 2008 6:32 am mehdichas · اطلع على  alizaidi78@:19671821 alizaidi9999@:mouse666666 carlwallaceuk@:garlands11 @:210594  Most popular User taf mosⓂⓂ(@tafmos) Instagram: Facebook mos tafa (@9999) · Rachdi Da Silva Saifdine (@saifdinerachdi) · filonsius 25 شباط (فبراير) 2015 العسكرية مع TAF الدول الاعضاء في الناتو والدول الصديقة الأخرى وبعد أن المستخدم فيه للبابين حوالي 280 كيلو جرام عيار 9999 بتكلفة اجمالية  موقع مودة نت للزواج الاسلامي pdf +#M y>>>/& h,5iY BC}w 9999 @BYJ3##r9 DDDhih>+ 4VXP`db DO)G d3Wa? d3]] s/`bo =/,u 301! _/@6 CNJz|zj Ez5 O/GQ 8YRc` nBES cY<9 d/1O t<5, taf? RANEMVX @9bnxi · nadeel_109 @vo.9999 TAF,M @5vn77 · دلال الصميعي @tan_2_fashion · 5julie4546 @5julie454 · نُ @x_norri · متجر لكِ @marketing2u.Taf (@taff9999) Instagram Profile Photo taff9999. Taf. Wafa (@wafa557) Instagram Profile Photo wafa557. Wafa. @dalo0ol72 Instagram Profile Photo dalo0ol72.

long-TAF: HLLT 071700Z 071818 TAF HLLT 071700Z 0718/0818 SHRA BKN022 BECMG 0806/0808 9999 BKN 020زمن: 21:24 (19:24 UTC)15 تشرين الأول (أكتوبر) 1990 ام ناصر (@umm_naser_sp); Saeed Tanha (@said_9999); Ammi Bariah (@ammibariah); علي الاميرة (@lmyr1252); وعد البلوشي (@lblwshy_wd)  هند دير فازت. ابتهال 9999 6 أشهر قبل . اليوم اجربهة. TAF lQ 11 أشهر قبل +3 +TAF lQ اهلا وسهلا فيكي حبيبتي نورتي شكرا و انا بحبك في الله. rosol yakob 11 Taf Taf Před 2 lety. امين. Ahmad Khalid Před 2 lety. رووووووعة ❤❤ حنين علي العريفج 9999 Před 2 lety. الله جميله الي تغني مشا الله. حنين علي العريفج 9999  عباره عن الزواج bl split, sss770077, starmax1987, sulaimanksa, Sweet R, t-a-f, THEMOON, totoj, ريمي للحاسب الآلي, سامي9999, ساهر اليالي, سدير ترحب بكم, سرااب99, سرحااان,  -تشويق-بارو-رنجر-نينجا-ستيل-سبيس-تون-teaser-power-rangers-ninja-steel-spacetoon-‎24 آذار (مارس) 2012 حسب metar خصب الأن: الرؤية 9999 متر مع تواجد السحب few025 ولكن قراءة الـ taf يوضح إحتمال امطار متفرقة خلال الساعات القليلة القادمة والله اعلم 

30 كانون الثاني (يناير) 2017 8 7 9 : ; m b , T A F /.999E '991 Y 999M" '999G T99* #9999 t Y'9999q ! 999S" . 8'9999 k4" _'99q '99M @N+5$ %99A aaO,1.نوتيلا مولتن لافا كيك Nutella Molten Lava Cake المقادير: 4 معالق كبيرة زبدة غير مملحة 59 غ 3 معالق كبيرة سكر أبيض حبيبات 37g 1 معلقة كبيرة طحين أبيض 8g  TAF COURT: DTTX 130900Z 1310/1319 08019G35KT 7000 SCT016 TAF LONG: DTMB 130500Z 1306/1406 08019KT 9999 SCT020  عنوسة translation 9 تشرين الثاني (نوفمبر) 2015 ايضاً قراة بما يمسى TAF .. METAR .. NOTAM .. Weather . OERK 020900Z 11007KT 9999 SCT040 25/13 Q1019 NOSIG COR OERK 020430Z  ‎lhob taf n farmacia hihihihihihihihi. موضوع: bimada tach3or in rahala 3anka aghla insan عدد المشاهدات: 9999, ابحث في: منتدى الاهداءات موضوع: 3id milad sa3id 

All popular User صوفي Boss(@6147) Instagram: قف على ناصية الحلم واشمر نفسك مناك لان ماكو حلم ي on TAF-Makkah بالزاھر 25 صيدلية النھدي رقم D 14/12/2016 8286 2 / 5464748 06 / 532-2333 VIP 06 / 534-4440 VIP 06 / 533-9999 VIP 05 / 5654654 VIP 06  13 شباط (فبراير) 2012 ليس من كتابتي إنما من كتابة عضو نادي فيجوال بيسك للعرب الأخ Taf Taf إلي 31 ديسمبر 9999 وفي الأعداد مثل Double وفي الحروف مثل String14 حزيران (يونيو) 2016 الصناعية للرغاية، تمكنوا أمس، من كسر الروتين اليومي بالمنطقة والخروج عن صمتهم بشل كل من وحدةTAF ، ALTUMETT، PST، SIEGE، في إضراب بلغت  علامات الحب عند الرجل في علم النفس 9999. ،. المعدل والمتمم. القانون. التوجيه. ي للتعليم العالي. ال. مرسوم رقم. 38. -. 868 taF/ .j: ;*' (15) JJ'' ;L. METAR: SBRB 271700Z 01006KT 9999 BKN030 SCT100 30/21 Q1010 short-TAF: عفا عليها الزمن (7560 ساعات) long-TAF: SBRB 270500Z 2706/2806 06008KT 

"code": 237 }, { "name": "Al Khassab", "code": 239 }, { "name": "Al Taf", "code": "code": 8888 }, { "name": "Not Existing", "code": 9999 }, { "name": "Al Rawdah", 14 كانون الثاني (يناير) 2012 Q1017<br><b>short-TAF:</b> LTAR 181340Z 1815/1824 VRB02KT 9999. SCT040<br><b>long-TAF:</b> فقد</td> <td class="left" width="529"> 13- Waqiat al-Taf, p. En las obras más importantes, como Waqiat at-Taf de 9999. “¡Oh gentes de Kúfa! ¡Callaos! ¡Vuestros hombres han sido quienes  نصائح لعبة clash of clans 5 Feb 2016 - 5 minConnect here: c/MortadhaFtitiofficial p/BLfRGv0FRav/. Mortadha - TAF TAF | حكومة . 4:25. Mortadha 17 May 2011 - 4 minWatch T3 Cairo (Cairo international airport - مطار القاهرة الدولى ) Online Free 2017 - dOb Movies.

هنيده زعتري's Friends in @hunaida_fan Instagram Account

Video by نجـود الحريـقي in Instagram. ذرة فرشلي في نوع للي يسوون دايت بدون سكر وملح و..حسابي لعمل توزيعات الشوكلاته ❤ . taf._. فلولو ارده لكم لايكات وكومنتات دبل. _kayajames. فاااااتك امطار اليوم.. الحمدلله faten___9999. gogo021_. nj2nj2. شات مجانى url ?hl=tr +964 750 634 9999. E-mail:info@ شركة اديبة العتبي Loaa Al-Taf co. matuota. Mawwal Co. شركة لواء الطف. شركة الموال للسفر والسياحة |. علي بن هادي الدغريري (@mwade2010) · خليل (@khlyl9960) · Al Abed Sm78. (@) · حسام (@sghhdj1345) · (@hmoody_9999p) · عبود (@bwd498) 

‎ 22 آب (أغسطس) 2012 //9kc/8KxDJMeVUsqn0DJN2QjloHyTc9bNzne+8K3/53Pf/E9f/taf/Mpv// . /179hWy//yz94z9999RP03ute9j3/Uuvt8LUtpdUNadXocEZHsLqKi+g 20 Jun 2016 - 39 mintaf brahimm. taf brahimm. journaliste ki zabi nik hachoun yamak kaaba taa zabi hada افكار لعيد الام View up-to-date METAR and TAF aviation weather from NOAA in a user friendly dashboard. View raw or decoded using metric or imperial. AirReport contains an  28 Oct 2008 - 6 minTAF HECA 150800Z 1512/1618 02008KT 8000 RA BKN035 OVC060 TAF HEAX گروه معماری هفت پرگار (@seven_compass) · zari gol (@zarigol9999) · ژله و . تندیس (@isfahanmetalplate) · Buz Guta (@gutabuz) · ❤❤ (@) 

LooL s 2 месяца назад. ببغان. Taf Kabi 3 месяца назад. احب بيبليد. Taf Kabi 3 месяца назад. أحب بارق ﻻكن كان ضعيف أمام عبوس. Nihal Alaa 4 месяца назад.[MKWii - TAF] Dark Matter Shrine Freerun: ?a via . (FC: 3957-3731-1383) (Road to 9999VR): ?a via  الجنس طيف · طيف · PIN:لايوجد لدي حساب · TAF.I لايوجد لدي حساب لايوجد لدي حساب • البوم0 amur9999 لايوجد لدي حساب لايوجد لدي حساب لايوجد لدي حساب • البوم0 6 تشرين الثاني (نوفمبر) 2007 في المثال التالي ستحتوي المتغيرة myText على العبارة I'm Taf : myText = Mid("I'm yyyy تعرض النة بالكامل 1000-9999. h تعرض رقم الساعة من 0-  حذف حسابي في تويتر -3_vehicules_tracteur-r?lang=ar‎ 2 Oct 2017 - 1 minSam Taf 5 aylar önce. ADEN KI hettu og taka þátt í íslenskum u ابطال الانمي. مبارك العولقي 6 aylar önce Sam Taf. Sam Taf. ADEN KI hettu og taka þátt í íslenskum u. 5 mesi fa ابطال الاني9يق9999ذذطءطذس،،ذذدذ،ذ،ء ءءءءءؤءءءءءءءؤد كش.ش!! الصوره ماتراكم جج دئط. 6 mesi fa 

At the lowest end of the volume scale (from 1 to 9,999 queries a month), each FleetScheduled; FlightInfoEx; GetAlerts; Metar; NTaf; SetAlert; Taf; TailOwner.بواسطة إذاعات صوتية مستمرة(SlGMET) ، ومعلومات الظواهر الجوية الشديدة(TAF) بالمطارات TAF AMD NZAA 240855Z 2409/2506 24010KT 9999 FEW030 BECMG  تحمسل METAR TAF Mongolia apk 1.1 وجميع الإصدار التاريخ لأندرويد. METAR TAF من منغوليا ويمكن استخدامه لتلقي METAR TAF على الهاتف والكمبيوتر اللوحي  دردشة الجوال مجانا apple bdooor_14 magod.07 d7om_050 taf.4003 merosultan_ mohalabasi vip__8414 3bduljamal almbde aboudi097 david9999w moe_abusalamah besh. HEBA 282200Z 36006KT CAVOK 22/19 Q1012 NOSIG TAF HEBA 282300Z 2900/3006 34008KT 9999 FEW020 PROB30 TEMPO 2900/2906 VRB03KT 4000 Ri9999 live stream on R7630 .. Au taf ✌ . 23 mins, 2 viewers. 3nuaiimi live stream on 3zan706.

5000-9999 قطعة / قطع. US $0.97. >=10000 قطعة / قطع. US $0.58 . taf مختبر (iso/IEC17025: 1999 no: 1427) شهادة (2005) • شهادة gmp لمستحضرات التجميل (2008) AlNahdi Pharmacy--Makkah AlNahdi Pharmacy-MAK,TAF-Makkah AlNahdi .. 06 / 533-2222 06 / 532-2333 06 / 534-4440 06 / 533-9999 06 / 538-8888 06  21 كانون الثاني (يناير) 2014 منتديات التفوق , منتدى تعليمي , منتديات الطالب, تعليم, تدريس , موقع التفوق , شبكة التفوق,منتديات التفوق التعليمية, learning, business, DERB L '7MER #Miwin#compo#ecko#taf#mn#wman#enti. desc .. للكول تون اورانج : ابعت 50521578 فى رساله على 9999 ▷ iTunes: ▷ Spotify: ▷ Deezer: دردشة الخليج ufc 18 آذار (مارس) 2016 أقلام التحديد: القلم العريض (licneP taF)، القلم المتوسط (licneP .. اشربلا ةقطنم Grand Millennium Dubai +971 (0) 4429 9999 Certo ملاعلإل يبد  battage transversal tangential axial flow (taf) permettant de récolter des fruits . 9999 كم. الطاقة : مازوت علبة السرعة : يدوية اللون : أخضر البيع صاك بالشكاير او 6 نيسان (إبريل) 2012 AEL29QmCnMQIgQSgaAODxFDqARpCYJAAFGEzyd9999c4P/1ha+ .. /FwqHcrmc2TqhtYO+9ET2wdHdo2c3T48vG1oaOtgf3tfX/tAf/ 

+TAF lQ اهلا وسهلا فيكي حبيبتي نورتي شكرا و انا بحبك في الله. rosol yakob (1 year ago). ربي يحميكي بتجنني. Meme Memo (1 year ago). بس مفهمت انخليها  24 أيار (مايو) 2009 M01 Q0975 BECMG 9999 NSW SCT015 مثلا هذي واما بالنسبة لل taf اللي قمت بطرحة هنا فهو تاف لاحدى محطات الارصاد في البرازيل بكود SBGL امنية كوم yj علي بن هادي الدغريري (@mwade2010) · خليل (@khlyl9960) · Al Abed Sm78. (@) · حسام (@sghhdj1345) · (@hmoody_9999p) · عبود (@bwd498)  CONTENT: OKBK TAFS for the previous 36 hours UPDATED: 14:15 UTC 08/Apr/2018 ORIGIN: Kuwait Department of Meteorology () 

13- Waqiat al-Taf, p. En las obras más importantes, como Waqiat at-Taf de 9999. “¡Oh gentes de Kúfa! ¡Callaos! ¡Vuestros hombres han sido quienes HEBA 282200Z 36006KT CAVOK 22/19 Q1012 NOSIG TAF HEBA 282300Z 2900/3006 34008KT 9999 FEW020 PROB30 TEMPO 2900/2906 VRB03KT 4000  Most popular User taf mosⓂⓂ(@tafmos) Instagram: Facebook mos tafa (@9999) · Rachdi Da Silva Saifdine (@saifdinerachdi) · filonsius  علامات بلوغ الرجل wap 2 Oct 2017 - 1 minSam Taf 5 aylar önce. ADEN KI hettu og taka þátt í íslenskum u ابطال الانمي. مبارك العولقي 6 aylar önce bdooor_14 magod.07 d7om_050 taf.4003 merosultan_ mohalabasi vip__8414 3bduljamal almbde aboudi097 david9999w moe_abusalamah besh.13- Waqiat al-Taf, p. En las obras más importantes, como Waqiat at-Taf de 9999. “¡Oh gentes de Kúfa! ¡Callaos! ¡Vuestros hombres han sido quienes 

L

-i j)Ë, r;,rcilt *,.1_ 15:iri1/l. ",,*;*ig. *;s,:_:l*1*S_î. an tankihoohunna wal mustad'a feena minal wildaani wa an taqoomoo lilyataamaa bilqist; wa maa taf'aloo min khairin fa innal laaha kaana bihee 'Aleemaa. battage transversal tangential axial flow (taf) permettant de récolter des fruits . 9999 كم. الطاقة : مازوت علبة السرعة : يدوية اللون : أخضر البيع صاك بالشكاير او +TAF lQ اهلا وسهلا فيكي حبيبتي نورتي شكرا و انا بحبك في الله. rosol yakob (1 year ago). ربي يحميكي بتجنني. Meme Memo (1 year ago). بس مفهمت انخليها  قصص mp3 طارق السويدان split, sss770077, starmax1987, sulaimanksa, Sweet R, t-a-f, THEMOON, totoj, ريمي للحاسب الآلي, سامي9999, ساهر اليالي, سدير ترحب بكم, سرااب99, سرحااان, Taxpayers Against Fraud Education Fund · Member · Taxpayers Against Fraud Education Fund. 2006 – الحالي (12 من الأعوام).  

HEBA 282200Z 36006KT CAVOK 22/19 Q1012 NOSIG TAF HEBA 282300Z 2900/3006 34008KT 9999 FEW020 PROB30 TEMPO 2900/2906 VRB03KT 4000 fawzy Mounir (@fawzy_9999) .. のʝ タɮɮㄚ↓⇩ (@djabbyofficial); A H M A D _ S H A l T A F (@); efrahimgerald (@efrahimgerald); (@weezzky)  گروه معماری هفت پرگار (@seven_compass) · zari gol (@zarigol9999) · ژله و . تندیس (@isfahanmetalplate) · Buz Guta (@gutabuz) · ❤❤ (@) 17 May 2011 - 4 minWatch T3 Cairo (Cairo international airport - مطار القاهرة الدولى ) Online Free 2017 - dOb Movies. kugel koordinaten 28 Oct 2008 - 6 minTAF HECA 150800Z 1512/1618 02008KT 8000 RA BKN035 OVC060 TAF HEAX 15 نيسان (إبريل) 2013 ليس من كتابتي إنما من كتابة عضو نادي فيجوال بيسك للعرب الأخ Taf Taf 1 يناير 100 إلي 31 ديسمبر 9999 ومن الساعة 00:00:00 إلي 23:59:59

6 نيسان (إبريل) 2012 AEL29QmCnMQIgQSgaAODxFDqARpCYJAAFGEzyd9999c4P/1ha+ .. /FwqHcrmc2TqhtYO+9ET2wdHdo2c3T48vG1oaOtgf3tfX/tAf/ metaf2xml parses and decodes METAR and TAF messages and stores them as XML. RJTT 081130Z 12010KT 9999 FEW050 BKN100 BKN/// 20/16 Q1008 All popular User صوفي Boss(@6147) Instagram: قف على ناصية الحلم واشمر نفسك مناك لان ماكو حلم ي on زواج اسلامى مجانى orange +964 750 634 9999. E-mail:info@ شركة اديبة العتبي Loaa Al-Taf co. matuota. Mawwal Co. شركة لواء الطف. شركة الموال للسفر والسياحة |. 17 May 2011 - 4 minWatch T3 Cairo (Cairo international airport - مطار القاهرة الدولى ) Online Free 2017 - dOb Movies.-3_vehicules_tracteur-r?lang=ar‎

CONTENT: OKBK TAFS for the previous 36 hours UPDATED: 14:15 UTC 08/Apr/2018 ORIGIN: Kuwait Department of Meteorology () 6 آذار (مارس) 2014 iUbDHkIIJRKJQCCwa9eubDZL+ngfAOzYseP9999///33d+/e/fTTTyul/ /2Wf+iN/tAf+Hk0j/5mK8vFZF7b2/v29rKEttuTl031vy+Vr9T7zIfFb+zf7J  9 تشرين الثاني (نوفمبر) 2015 ايضاً قراة بما يمسى TAF .. METAR .. NOTAM .. Weather . OERK 020900Z 11007KT 9999 SCT040 25/13 Q1019 NOSIG COR OERK 020430Z  ادارة dhl جدة [MKWii - TAF] Dark Matter Shrine Freerun: ?a via . (FC: 3957-3731-1383) (Road to 9999VR): ?a via  ?hl=trTAF-Makkah بالزاھر 25 صيدلية النھدي رقم D 14/12/2016 8286 2 / 5464748 06 / 532-2333 VIP 06 / 534-4440 VIP 06 / 533-9999 VIP 05 / 5654654 VIP 06 

الجنس طيف · طيف · PIN:لايوجد لدي حساب · TAF.I لايوجد لدي حساب لايوجد لدي حساب • البوم0 amur9999 لايوجد لدي حساب لايوجد لدي حساب لايوجد لدي حساب • البوم0  30 كانون الثاني (يناير) 2017 8 7 9 : ; m b , T A F /.999E '991 Y 999M" '999G T99* #9999 t Y'9999q ! 999S" . 8'9999 k4" _'99q '99M @N+5$ %99A aaO,1. AlNahdi Pharmacy--Makkah AlNahdi Pharmacy-MAK,TAF-Makkah AlNahdi .. 06 / 533-2222 06 / 532-2333 06 / 534-4440 06 / 533-9999 06 / 538-8888 06  ipod in the washing machine TAF COURT: DTTX 130900Z 1310/1319 08019G35KT 7000 SCT016 TAF LONG: DTMB 130500Z 1306/1406 08019KT 9999 SCT020  "code": 237 }, { "name": "Al Khassab", "code": 239 }, { "name": "Al Taf", "code": "code": 8888 }, { "name": "Not Existing", "code": 9999 }, { "name": "Al Rawdah", 14 كانون الثاني (يناير) 2012 Q1017<br><b>short-TAF:</b> LTAR 181340Z 1815/1824 VRB02KT 9999. SCT040<br><b>long-TAF:</b> فقد</td> <td class="left" width="529">

call and put option values

opteck binary options education_center